Latest Weather Observations for Rolleston Airport

IDQ60801

Issued at 3:32 pm EST Thursday 18 December 2014 (issued every 30 minutes, with the page automatically refreshed every 10 minutes)

About weather observations | Map of weather stations | Latest weather observations for QLD | Other Formats
Station Details ID: 035129 Name: ROLLESTON AIRPORT Lat: -24.46 Lon: 148.63 Height: 219.45 m
Data from the previous 72 hours. | See also: Recent months at Rolleston Airport
Date/Time
EST
Temp
°C
App
Temp
°C
Dew
Point
Rel
Hum
%
Delta-T
°C
Wind Press
QNH
hPa
Press
MSL
hPa
Rain
since 9 am
mm
Dir
 
Spd
km/h
Gust
km/h
Spd
kts
Gust
kts
18/03:30pm 36.9 33.8 11.7 22 15.2 NNW 19 28 10 15 1006.5 1005.1 0.0
18/03:00pm 36.6 33.7 12.8 24 14.6 N 20 30 11 16 1006.5 1005.1 0.0
18/02:30pm 36.6 33.9 13.4 25 14.3 N 20 33 11 18 1006.6 1005.2 0.0
18/02:00pm 38.1 35.8 14.0 24 15.1 NNW 19 35 10 19 1007.0 1005.6 0.0
18/01:30pm 37.5 34.2 11.5 21 15.7 NNW 20 33 11 18 1007.8 1006.3 0.0
18/01:00pm 37.3 34.1 11.3 21 15.6 N 19 30 10 16 1008.5 1007.1 0.0
18/12:30pm 36.6 33.0 10.7 21 15.4 N 20 30 11 16 1008.7 1007.3 0.0
18/12:00pm 36.3 33.3 12.5 24 14.5 N 20 32 11 17 1009.4 1008.0 0.0
18/11:30am 35.9 32.6 12.8 25 14.1 N 22 33 12 18 1009.8 1008.4 0.0
18/11:00am 35.2 32.3 12.8 26 13.7 N 20 30 11 16 1010.1 1008.7 0.0
18/10:30am 34.6 31.9 13.4 28 13.0 NNW 20 32 11 17 1010.3 1008.9 0.0
18/10:00am 33.8 31.0 13.3 29 12.5 NNW 20 28 11 15 1010.5 1009.1 0.0
18/09:30am 32.5 30.9 15.1 35 10.8 NNW 17 26 9 14 1010.6 1009.2 0.0
18/09:00am 31.5 30.5 16.6 40 9.5 N 17 24 9 13 1010.9 1009.5 0.0
18/08:30am 30.1 29.7 16.1 42 8.8 NNW 13 19 7 10 1011.2 1009.8 0.0
18/08:00am 29.5 29.1 16.3 45 8.3 NW 13 20 7 11 1011.4 1010.0 0.0
18/07:30am 28.2 28.5 15.1 44 8.0 N 7 13 4 7 1011.4 1010.0 0.0
18/07:00am 27.6 28.1 13.9 43 8.2 NW 4 11 2 6 1011.2 1009.8 0.0
18/06:30am 26.3 28.2 16.8 56 5.9 SSW 2 4 1 2 1010.9 1009.5 0.0
18/06:00am 24.8 26.4 17.0 62 4.9 SSW 4 6 2 3 1010.6 1009.2 0.0
18/05:30am 24.2 25.3 16.5 62 4.8 SW 6 9 3 5 1010.2 1008.8 0.0
18/05:00am 24.5 25.6 16.5 61 5.0 NE 6 7 3 4 1009.5 1008.1 0.0
18/04:30am 25.2 25.7 16.6 59 5.3 N 9 13 5 7 1009.3 1007.9 0.0
18/04:00am 25.5 26.1 16.9 59 5.4 NE 9 13 5 7 1009.2 1007.8 0.0
18/03:30am 25.8 26.1 16.9 58 5.6 ENE 11 15 6 8 1009.2 1007.8 0.0
18/03:00am 26.2 25.2 16.7 56 5.9 E 17 24 9 13 1008.9 1007.5 0.0
18/02:30am 26.6 26.1 15.9 51 6.6 E 13 17 7 9 1009.2 1007.8 0.0
18/02:00am 26.9 27.8 16.5 53 6.5 ESE 7 9 4 5 1009.3 1007.9 0.0
18/01:30am 26.7 27.3 16.9 55 6.2 E 9 13 5 7 1009.0 1007.6 0.0
18/01:00am 27.6 27.4 15.6 48 7.4 E 11 15 6 8 1008.9 1007.5 0.0
18/12:30am 28.4 28.2 14.6 43 8.4 ENE 9 11 5 6 1008.9 1007.5 0.0
18/12:00am 28.9 28.3 14.7 42 8.7 NE 11 13 6 7 1009.0 1007.6 0.0
 
Date/Time
EST
Temp
°C
App
Temp
°C
Dew
Point
Rel
Hum
%
Delta-T
°C
Wind Press
QNH
hPa
Press
MSL
hPa
Rain
since 9 am
mm
Dir
 
Spd
km/h
Gust
km/h
Spd
kts
Gust
kts
17/11:30pm 29.6 28.5 14.2 39 9.4 NNE 13 20 7 11 1009.1 1007.7 0.0
17/11:00pm 30.4 30.4 14.1 37 9.9 NNE 7 17 4 9 1009.5 1008.1 0.0
17/10:30pm 29.5 30.0 14.9 41 9.0 E 6 9 3 5 1009.5 1008.1 0.0
17/10:00pm 30.1 29.1 14.6 39 9.5 N 13 20 7 11 1007.7 1006.2 0.0
17/09:30pm 30.0 29.6 15.3 41 9.1 N 11 15 6 8 1007.5 1006.0 0.0
17/09:00pm 30.6 30.9 15.1 39 9.6 N 7 9 4 5 1007.3 1005.8 0.0
17/08:30pm 31.5 30.9 14.6 36 10.4 N 11 17 6 9 1006.9 1005.5 0.0
17/08:00pm 32.6 31.8 15.1 34 10.9 N 13 20 7 11 1006.4 1005.0 0.0
17/07:30pm 32.2 32.7 16.5 39 10.0 N 9 15 5 8 1006.3 1004.9 0.0
17/07:00pm 32.4 32.2 16.7 39 10.0 N 13 17 7 9 1006.0 1004.6 0.0
17/06:30pm 33.8 33.6 15.7 33 11.5 NNE 11 15 6 8 1005.7 1004.3 0.0
17/06:00pm 35.6 34.0 15.9 31 12.6 N 19 26 10 14 1005.3 1003.9 0.0
17/05:30pm 36.6 35.0 15.1 27 13.6 N 17 30 9 16 1005.2 1003.8 0.0
17/05:00pm 36.5 34.7 16.1 29 13.1 N 20 30 11 16 1004.9 1003.5 0.0
17/04:30pm 36.5 33.8 15.6 29 13.3 N 24 33 13 18 1004.7 1003.3 0.0
17/04:00pm 37.2 35.6 15.1 27 14.0 N 17 28 9 15 1004.8 1003.4 0.0
17/03:30pm 37.6 35.7 14.2 25 14.7 N 17 26 9 14 1004.9 1003.5 0.0
17/03:00pm 37.3 35.0 14.0 25 14.6 N 19 30 10 16 1005.4 1004.0 0.0
17/02:30pm 37.0 34.2 14.3 26 14.2 N 22 33 12 18 1006.0 1004.6 0.0
17/02:00pm 37.0 34.6 14.3 26 14.2 N 20 30 11 16 1006.4 1005.0 0.0
17/01:30pm 35.7 33.1 13.8 27 13.5 NNW 20 32 11 17 1006.9 1005.5 0.0
17/01:00pm 36.2 34.3 15.3 28 13.3 N 19 30 10 16 1007.5 1006.0 0.0
17/12:30pm 35.7 33.5 14.4 28 13.3 N 19 30 10 16 1007.8 1006.3 0.0
17/12:00pm 35.1 33.1 14.9 29 12.7 NNW 19 28 10 15 1008.0 1006.6 0.0
17/11:30am 34.5 32.5 14.9 31 12.3 N 19 28 10 15 1008.4 1007.0 0.0
17/11:00am 32.8 30.8 13.9 31 11.6 N 17 30 9 16 1009.0 1007.6 0.0
17/10:30am 31.1 28.7 13.8 34 10.5 N 19 26 10 14 1009.3 1007.9 0.0
17/10:00am 31.3 29.3 14.9 37 10.2 N 19 24 10 13 1009.4 1008.0 0.0
17/09:30am 30.8 28.7 14.8 37 9.9 NNW 19 28 10 15 1009.5 1008.1 0.0
17/09:00am 29.7 28.5 13.9 38 9.6 NNW 13 24 7 13 1009.5 1008.1 0.0
17/08:30am 29.0 27.9 15.2 43 8.5 N 15 24 8 13 1009.2 1007.8 0.0
17/08:00am 28.1 28.7 16.7 50 7.2 N 9 15 5 8 1009.1 1007.7 0.0
17/07:30am 26.8 26.4 16.1 52 6.6 N 13 17 7 9 1009.1 1007.7 0.0
17/07:00am 26.6 26.7 16.5 54 6.3 N 11 17 6 9 1008.9 1007.5 0.0
17/06:30am 25.5 26.0 17.4 61 5.1 N 11 17 6 9 1008.6 1007.2 0.0
17/06:00am 25.1 25.7 17.8 64 4.6 N 11 17 6 9 1008.4 1007.0 0.0
17/05:30am 24.5 25.2 18.0 67 4.1 N 11 17 6 9 1008.0 1006.6 0.0
17/05:00am 24.6 25.0 18.1 67 4.1 N 13 20 7 11 1007.8 1006.3 0.0
17/04:30am 24.9 25.2 17.9 65 4.4 N 13 20 7 11 1007.5 1006.0 0.0
17/04:00am 25.1 24.5 17.6 63 4.7 N 17 22 9 12 1006.9 1005.5 0.0
17/03:30am 25.0 26.0 17.7 64 4.6 N 9 11 5 6 1006.9 1005.5 0.0
17/03:00am 25.4 26.8 17.3 61 5.1 N 6 9 3 5 1006.7 1005.3 0.0
17/02:30am 26.3 26.4 16.5 54 6.1 NNE 11 17 6 9 1006.5 1005.1 0.0
17/02:00am 26.0 26.7 16.0 54 6.2 NNE 7 11 4 6 1006.5 1005.1 0.0
17/01:30am 26.4 24.8 15.1 49 6.9 NNE 17 20 9 11 1006.5 1005.1 0.0
17/01:00am 27.0 27.9 15.1 48 7.3 N 4 6 2 3 1007.7 1006.2 0.0
17/12:30am 27.4 27.5 14.4 45 7.9 NW 7 9 4 5 1007.9 1006.4 0.0
17/12:00am 27.2 26.8 14.2 44 7.9 NNW 9 13 5 7 1008.1 1006.7 0.0
 
Date/Time
EST
Temp
°C
App
Temp
°C
Dew
Point
Rel
Hum
%
Delta-T
°C
Wind Press
QNH
hPa
Press
MSL
hPa
Rain
since 9 am
mm
Dir
 
Spd
km/h
Gust
km/h
Spd
kts
Gust
kts
16/11:30pm 27.8 26.9 13.7 42 8.5 SW 11 17 6 9 1008.9 1007.5 0.0
16/11:00pm 26.1 27.8 16.1 54 6.2 N 2 4 1 2 1008.3 1006.9 0.0
16/10:30pm 26.3 25.8 15.0 49 6.9 N 11 15 6 8 1007.9 1006.4 0.0
16/10:00pm 26.7 26.7 15.1 49 7.1 N 9 11 5 6 1007.8 1006.3 0.0
16/09:30pm 27.3 26.7 14.7 46 7.7 N 11 13 6 7 1007.6 1006.1 0.0
16/09:00pm 28.0 27.9 15.0 45 8.0 NNE 9 9 5 5 1007.4 1005.9 0.0
16/08:30pm 28.8 28.4 15.3 43 8.3 N 11 13 6 7 1007.4 1005.9 0.0
16/08:00pm 29.5 29.3 15.6 43 8.7 NNE 11 13 6 7 1007.3 1005.8 0.0
16/07:30pm 29.4 29.5 15.5 43 8.6 N 9 11 5 6 1007.0 1005.6 0.0
16/07:00pm 30.9 30.3 14.5 37 10.1 N 11 13 6 7 1006.8 1005.4 0.0
16/06:30pm 32.8 32.0 13.9 31 11.6 N 11 15 6 8 1006.3 1004.9 0.0
16/06:00pm 34.3 32.6 13.7 29 12.7 N 15 20 8 11 1005.9 1004.5 0.0
16/05:30pm 35.3 32.8 13.5 27 13.4 NNE 19 28 10 15 1005.6 1004.2 0.0
16/05:00pm 35.8 33.0 13.3 26 13.9 NNE 20 28 11 15 1005.4 1004.0 0.0
16/04:30pm 36.6 34.2 12.8 24 14.6 N 17 26 9 14 1005.4 1004.0 0.0
16/04:00pm 36.4 34.7 12.6 24 14.5 NNE 13 20 7 11 1005.4 1004.0 0.0
16/03:30pm 36.5 34.7 12.0 23 14.8 N 13 24 7 13 1005.9 1004.5 0.0
16/03:00pm 36.7 35.0 13.5 25 14.4 N 15 26 8 14 1006.2 1004.8 0.0
16/02:30pm 36.0 33.7 11.6 23 14.6 N 15 24 8 13 1006.8 1005.4 0.0
16/02:00pm 36.6 35.0 14.0 26 14.1 N 15 24 8 13 1007.3 1005.8 0.0
16/01:30pm 35.4 33.3 12.4 25 13.9 N 15 22 8 12 1007.7 1006.2 0.0
16/01:00pm 35.0 33.5 13.2 27 13.4 N 13 22 7 12 1008.2 1006.8 0.0
16/12:30pm 34.7 34.3 14.0 28 12.8 NNW 9 19 5 10 1008.7 1007.3 0.0
16/12:00pm 34.0 32.6 13.5 29 12.6 NW 13 22 7 12 1009.1 1007.7 0.0
16/11:30am 33.6 33.4 15.6 34 11.3 NNW 11 28 6 15 1009.8 1008.4 0.0
16/11:00am 32.9 32.1 17.1 39 10.2 NNW 17 28 9 15 1010.1 1008.7 0.0
16/10:30am 32.2 31.9 17.3 41 9.6 NNW 15 22 8 12 1010.7 1009.3 0.0
16/10:00am 31.2 31.2 18.2 46 8.4 NNW 15 24 8 13 1011.2 1009.8 0.0
16/09:30am 30.0 30.1 17.5 47 8.0 N 13 20 7 11 1011.2 1009.8 0.0
16/09:00am 28.7 29.4 18.8 55 6.4 N 13 22 7 12 1011.7 1010.3 0.0
16/08:30am 26.9 28.1 18.2 59 5.6 N 9 15 5 8 1011.6 1010.2 0.0
16/08:00am 25.9 27.5 19.1 66 4.4 N 9 15 5 8 1011.7 1010.3 0.0
16/07:30am 24.4 25.6 19.0 72 3.5 N 11 17 6 9 1011.7 1010.3 0.0
16/07:00am 23.2 24.1 19.2 78 2.6 N 13 19 7 10 1011.4 1010.0 0.0
16/06:30am 22.1 22.7 18.5 80 2.3 N 13 17 7 9 1011.2 1009.8 0.0
16/06:00am 20.8 21.2 17.2 80 2.2 NNE 11 13 6 7 1010.9 1009.5 0.0
16/05:30am 19.8 20.4 16.8 83 1.8 NE 9 11 5 6 1010.6 1009.2 0.0
16/05:00am 19.6 21.5 16.6 83 1.8 NNE 2 6 1 3 1010.2 1008.8 0.0
16/04:30am 19.4 21.5 16.2 82 1.9 CALM 0 4 0 2 1009.7 1008.3 0.0
16/04:00am 20.3 22.0 15.1 72 3.1 CALM 0 0 0 0 1009.4 1008.0 0.0
16/03:30am 20.4 21.2 13.6 65 3.9 NNW 2 2 1 1 1009.2 1007.8 0.0
16/03:00am 20.3 21.0 14.4 69 3.5 NNW 4 6 2 3 1009.2 1007.8 0.0
16/02:30am 20.4 21.5 14.5 69 3.5 NW 2 4 1 2 1009.3 1007.9 0.0
16/02:00am 20.6 21.9 15.2 71 3.2 W 2 4 1 2 1009.2 1007.8 0.0
16/01:30am 20.7 21.7 15.3 71 3.2 NW 4 4 2 2 1009.4 1008.0 0.0
16/01:00am 21.2 22.6 15.5 70 3.4 WNW 2 4 1 2 1009.4 1008.0 0.0
16/12:30am 21.9 22.8 15.0 65 4.1 NW 4 4 2 2 1009.6 1008.2 0.0
16/12:00am 21.9 22.3 14.8 64 4.2 NW 6 7 3 4 1010.0 1008.6 0.0
 
Date/Time
EST
Temp
°C
App
Temp
°C
Dew
Point
Rel
Hum
%
Delta-T
°C
Wind Press
QNH
hPa
Press
MSL
hPa
Rain
since 9 am
mm
Dir
 
Spd
km/h
Gust
km/h
Spd
kts
Gust
kts
15/11:30pm 22.1 23.2 15.7 67 3.9 N 4 6 2 3 1010.3 1008.9 0.0
15/11:00pm 23.4 23.9 14.9 59 5.1 N 6 7 3 4 1010.5 1009.1 0.0
15/10:30pm 25.1 24.9 14.6 52 6.3 NE 9 13 5 7 1010.8 1009.4 0.0
15/10:00pm 24.7 24.3 14.2 52 6.3 NNE 9 15 5 8 1011.0 1009.6 0.0
15/09:30pm 26.9 26.1 14.0 45 7.7 NE 11 15 6 8 1010.8 1009.4 0.0
15/09:00pm 25.6 26.1 14.1 49 6.9 N 4 6 2 3 1010.7 1009.3 0.0
15/08:30pm 27.3 26.1 12.9 41 8.5 E 11 15 6 8 1010.2 1008.8 0.0
15/08:00pm 26.1 25.0 13.2 44 7.6 ENE 11 19 6 10 1009.9 1008.5 0.0
15/07:30pm 28.3 28.2 12.2 37 9.4 SSE 4 4 2 2 1009.5 1008.1 0.0
15/07:00pm 28.8 28.2 12.2 35 9.8 SE 7 9 4 5 1009.2 1007.8 0.0
15/06:30pm 31.2 30.1 10.5 28 12.0 SSE 7 9 4 5 1008.9 1007.5 0.0
15/06:00pm 32.5 30.8 9.9 25 13.0 SSE 9 15 5 8 1008.8 1007.4 0.0
15/05:30pm 32.8 30.9 8.9 23 13.6 SSE 9 17 5 9 1008.7 1007.3 0.0
15/05:00pm 33.6 32.2 9.6 23 13.9 SW 7 11 4 6 1008.4 1007.0 0.0
15/04:30pm 33.0 31.6 9.7 24 13.4 S 7 19 4 10 1008.3 1006.9 0.0
15/04:00pm 32.5 30.3 9.3 24 13.3 SE 11 17 6 9 1008.3 1006.9 0.0

Other Formats:

Comma delimited format used in spreadsheet applications
http://www.bom.gov.au/fwo/IDQ60801/IDQ60801.94396.axf

JavaScript Object Notation format (JSON) in row-major order
http://www.bom.gov.au/fwo/IDQ60801/IDQ60801.94396.json